Greenview, California
Current Conditions -  °F | °C
As of 6:17 AM on Sunday 25 Jan 2015 (Local Time) from KSIY Reporting Station
Moderate Fog Moderate Fog  
Wind Chill: 27°   Ceiling: 100
Heat Index: 27°   Visibility: 0.25mi
Dew Point: 26°   Wind: 0mph
Humidity: 96%   Direction: NA
Pressure: 30.34"   Gusts: NA
Location:  41.55°N, 122.9°W
Report Text: KSIY 251417Z AUTO 00000KT 1/4SM FZFG VV001 M03/M03 A3034 RMK AO2 T10281033
Loading
Personal Weather Stations






























Interactive Weather Map New forecast layout! Learn more

10-Day Weather Forecast

Advertisements
Track Severe Weather on mobile